sensor_id;sensor_type;location;lat;lon;timestamp;temperature;humidity
2647;DHT22;1333;50.958;6.770;2023-04-15T00:01:14;6.40;99.90
2647;DHT22;1333;50.958;6.770;2023-04-15T00:03:43;6.30;99.90
2647;DHT22;1333;50.958;6.770;2023-04-15T00:06:09;6.30;99.90
2647;DHT22;1333;50.958;6.770;2023-04-15T00:08:34;6.30;99.90
2647;DHT22;1333;50.958;6.770;2023-04-15T00:11:00;6.30;99.90
2647;DHT22;1333;50.958;6.770;2023-04-15T00:13:30;6.30;99.90
2647;DHT22;1333;50.958;6.770;2023-04-15T00:15:55;6.20;99.90
2647;DHT22;1333;50.958;6.770;2023-04-15T00:18:22;6.20;99.90
2647;DHT22;1333;50.958;6.770;2023-04-15T00:20:48;6.20;99.90
2647;DHT22;1333;50.958;6.770;2023-04-15T00:23:13;6.10;99.90
2647;DHT22;1333;50.958;6.770;2023-04-15T00:25:39;6.10;99.90
2647;DHT22;1333;50.958;6.770;2023-04-15T00:28:05;6.00;99.90
2647;DHT22;1333;50.958;6.770;2023-04-15T00:30:30;6.00;99.90
2647;DHT22;1333;50.958;6.770;2023-04-15T00:32:56;6.00;99.90
2647;DHT22;1333;50.958;6.770;2023-04-15T00:35:21;6.00;99.90
2647;DHT22;1333;50.958;6.770;2023-04-15T00:37:48;5.90;99.90
2647;DHT22;1333;50.958;6.770;2023-04-15T00:40:16;5.80;99.90
2647;DHT22;1333;50.958;6.770;2023-04-15T00:42:43;5.80;99.90
2647;DHT22;1333;50.958;6.770;2023-04-15T00:45:09;5.80;99.90
2647;DHT22;1333;50.958;6.770;2023-04-15T00:47:35;5.80;99.90
2647;DHT22;1333;50.958;6.770;2023-04-15T00:50:02;5.80;99.90
2647;DHT22;1333;50.958;6.770;2023-04-15T00:52:27;5.70;99.90
2647;DHT22;1333;50.958;6.770;2023-04-15T00:54:53;5.70;99.90
2647;DHT22;1333;50.958;6.770;2023-04-15T00:57:20;5.70;99.90
2647;DHT22;1333;50.958;6.770;2023-04-15T00:59:46;5.70;99.90
2647;DHT22;1333;50.958;6.770;2023-04-15T01:02:12;5.60;99.90
2647;DHT22;1333;50.958;6.770;2023-04-15T01:04:37;5.60;99.90
2647;DHT22;1333;50.958;6.770;2023-04-15T01:07:03;5.60;99.90
2647;DHT22;1333;50.958;6.770;2023-04-15T01:09:28;5.50;99.90
2647;DHT22;1333;50.958;6.770;2023-04-15T01:11:54;5.50;99.90
2647;DHT22;1333;50.958;6.770;2023-04-15T01:14:20;5.50;99.90
2647;DHT22;1333;50.958;6.770;2023-04-15T01:16:46;5.50;99.90
2647;DHT22;1333;50.958;6.770;2023-04-15T01:19:13;5.40;99.90
2647;DHT22;1333;50.958;6.770;2023-04-15T01:21:41;5.40;99.90
2647;DHT22;1333;50.958;6.770;2023-04-15T01:24:08;5.40;99.90
2647;DHT22;1333;50.958;6.770;2023-04-15T01:26:38;5.40;99.90
2647;DHT22;1333;50.958;6.770;2023-04-15T01:29:03;5.30;99.90
2647;DHT22;1333;50.958;6.770;2023-04-15T01:31:29;5.30;99.90
2647;DHT22;1333;50.958;6.770;2023-04-15T01:33:54;5.30;99.90
2647;DHT22;1333;50.958;6.770;2023-04-15T01:36:20;5.30;99.90
2647;DHT22;1333;50.958;6.770;2023-04-15T01:38:46;5.30;99.90
2647;DHT22;1333;50.958;6.770;2023-04-15T01:41:13;5.20;99.90
2647;DHT22;1333;50.958;6.770;2023-04-15T01:43:38;5.20;99.90
2647;DHT22;1333;50.958;6.770;2023-04-15T01:46:04;5.20;99.90
2647;DHT22;1333;50.958;6.770;2023-04-15T01:48:30;5.10;99.90
2647;DHT22;1333;50.958;6.770;2023-04-15T01:50:57;5.10;99.90
2647;DHT22;1333;50.958;6.770;2023-04-15T01:53:24;5.10;99.90
2647;DHT22;1333;50.958;6.770;2023-04-15T01:55:50;5.10;99.90
2647;DHT22;1333;50.958;6.770;2023-04-15T01:58:17;5.00;99.90
2647;DHT22;1333;50.958;6.770;2023-04-15T02:00:42;5.00;99.90
2647;DHT22;1333;50.958;6.770;2023-04-15T02:03:08;5.00;99.90
2647;DHT22;1333;50.958;6.770;2023-04-15T02:05:34;5.00;99.90
2647;DHT22;1333;50.958;6.770;2023-04-15T02:07:59;5.00;99.90
2647;DHT22;1333;50.958;6.770;2023-04-15T02:10:25;5.00;99.90
2647;DHT22;1333;50.958;6.770;2023-04-15T02:12:51;4.90;99.90
2647;DHT22;1333;50.958;6.770;2023-04-15T02:15:17;4.90;99.90
2647;DHT22;1333;50.958;6.770;2023-04-15T02:17:42;4.90;99.90
2647;DHT22;1333;50.958;6.770;2023-04-15T02:20:10;4.90;99.90
2647;DHT22;1333;50.958;6.770;2023-04-15T02:22:36;4.90;99.90
2647;DHT22;1333;50.958;6.770;2023-04-15T02:25:01;4.90;99.90
2647;DHT22;1333;50.958;6.770;2023-04-15T02:27:27;4.90;99.90
2647;DHT22;1333;50.958;6.770;2023-04-15T02:29:53;4.90;99.90
2647;DHT22;1333;50.958;6.770;2023-04-15T02:32:19;4.90;99.90
2647;DHT22;1333;50.958;6.770;2023-04-15T02:34:46;4.80;99.90
2647;DHT22;1333;50.958;6.770;2023-04-15T02:37:12;4.80;99.90
2647;DHT22;1333;50.958;6.770;2023-04-15T02:39:38;4.80;99.90
2647;DHT22;1333;50.958;6.770;2023-04-15T02:42:03;4.80;99.90
2647;DHT22;1333;50.958;6.770;2023-04-15T02:44:30;4.70;99.90
2647;DHT22;1333;50.958;6.770;2023-04-15T02:46:57;4.70;99.90
2647;DHT22;1333;50.958;6.770;2023-04-15T02:49:23;4.70;99.90
2647;DHT22;1333;50.958;6.770;2023-04-15T02:51:49;4.70;99.90
2647;DHT22;1333;50.958;6.770;2023-04-15T02:54:19;4.60;99.90
2647;DHT22;1333;50.958;6.770;2023-04-15T02:56:47;4.60;99.90
2647;DHT22;1333;50.958;6.770;2023-04-15T02:59:12;4.60;99.90
2647;DHT22;1333;50.958;6.770;2023-04-15T03:01:38;4.60;99.90
2647;DHT22;1333;50.958;6.770;2023-04-15T03:04:03;4.60;99.90
2647;DHT22;1333;50.958;6.770;2023-04-15T03:06:30;4.60;99.90
2647;DHT22;1333;50.958;6.770;2023-04-15T03:08:56;4.50;99.90
2647;DHT22;1333;50.958;6.770;2023-04-15T03:11:21;4.50;99.90
2647;DHT22;1333;50.958;6.770;2023-04-15T03:13:47;4.50;99.90
2647;DHT22;1333;50.958;6.770;2023-04-15T03:16:13;4.50;99.90
2647;DHT22;1333;50.958;6.770;2023-04-15T03:18:38;4.40;99.90
2647;DHT22;1333;50.958;6.770;2023-04-15T03:21:04;4.40;99.90
2647;DHT22;1333;50.958;6.770;2023-04-15T03:23:30;4.40;99.90
2647;DHT22;1333;50.958;6.770;2023-04-15T03:25:56;4.40;99.90
2647;DHT22;1333;50.958;6.770;2023-04-15T03:28:23;4.40;99.90
2647;DHT22;1333;50.958;6.770;2023-04-15T03:30:48;4.40;99.90
2647;DHT22;1333;50.958;6.770;2023-04-15T03:33:14;4.40;99.90
2647;DHT22;1333;50.958;6.770;2023-04-15T03:35:40;4.40;99.90
2647;DHT22;1333;50.958;6.770;2023-04-15T03:38:05;4.40;99.90
2647;DHT22;1333;50.958;6.770;2023-04-15T03:40:31;4.40;99.90
2647;DHT22;1333;50.958;6.770;2023-04-15T03:42:56;4.40;99.90
2647;DHT22;1333;50.958;6.770;2023-04-15T03:45:22;4.40;99.90
2647;DHT22;1333;50.958;6.770;2023-04-15T03:47:47;4.40;99.90
2647;DHT22;1333;50.958;6.770;2023-04-15T03:50:14;4.40;99.90
2647;DHT22;1333;50.958;6.770;2023-04-15T03:52:39;4.40;99.90
2647;DHT22;1333;50.958;6.770;2023-04-15T03:55:05;4.30;99.90
2647;DHT22;1333;50.958;6.770;2023-04-15T03:57:31;4.30;99.90
2647;DHT22;1333;50.958;6.770;2023-04-15T03:59:56;4.30;99.90
2647;DHT22;1333;50.958;6.770;2023-04-15T04:02:22;4.30;99.90
2647;DHT22;1333;50.958;6.770;2023-04-15T04:04:47;4.30;99.90
2647;DHT22;1333;50.958;6.770;2023-04-15T04:07:17;4.30;99.90
2647;DHT22;1333;50.958;6.770;2023-04-15T04:09:42;4.30;99.90
2647;DHT22;1333;50.958;6.770;2023-04-15T04:12:08;4.30;99.90
2647;DHT22;1333;50.958;6.770;2023-04-15T04:14:34;4.30;99.90
2647;DHT22;1333;50.958;6.770;2023-04-15T04:16:59;4.30;99.90
2647;DHT22;1333;50.958;6.770;2023-04-15T04:19:25;4.30;99.90
2647;DHT22;1333;50.958;6.770;2023-04-15T04:21:51;4.30;99.90
2647;DHT22;1333;50.958;6.770;2023-04-15T04:24:16;4.30;99.90
2647;DHT22;1333;50.958;6.770;2023-04-15T04:26:42;4.30;99.90
2647;DHT22;1333;50.958;6.770;2023-04-15T04:29:07;4.30;99.90
2647;DHT22;1333;50.958;6.770;2023-04-15T04:31:33;4.30;99.90
2647;DHT22;1333;50.958;6.770;2023-04-15T04:33:59;4.30;99.90
2647;DHT22;1333;50.958;6.770;2023-04-15T04:36:24;4.30;99.90
2647;DHT22;1333;50.958;6.770;2023-04-15T04:38:50;4.30;99.90
2647;DHT22;1333;50.958;6.770;2023-04-15T04:41:17;4.30;99.90
2647;DHT22;1333;50.958;6.770;2023-04-15T04:43:42;4.30;99.90
2647;DHT22;1333;50.958;6.770;2023-04-15T04:46:08;4.40;99.90
2647;DHT22;1333;50.958;6.770;2023-04-15T04:48:34;4.40;99.90
2647;DHT22;1333;50.958;6.770;2023-04-15T04:51:00;4.40;99.90
2647;DHT22;1333;50.958;6.770;2023-04-15T04:53:25;4.40;99.90
2647;DHT22;1333;50.958;6.770;2023-04-15T04:55:52;4.50;99.90
2647;DHT22;1333;50.958;6.770;2023-04-15T04:58:17;4.50;99.90
2647;DHT22;1333;50.958;6.770;2023-04-15T05:00:43;4.50;99.90
2647;DHT22;1333;50.958;6.770;2023-04-15T05:03:09;4.60;99.90
2647;DHT22;1333;50.958;6.770;2023-04-15T05:05:35;4.70;99.90
2647;DHT22;1333;50.958;6.770;2023-04-15T05:08:01;4.70;99.90
2647;DHT22;1333;50.958;6.770;2023-04-15T05:10:27;4.80;99.90
2647;DHT22;1333;50.958;6.770;2023-04-15T05:12:52;4.80;99.90
2647;DHT22;1333;50.958;6.770;2023-04-15T05:15:18;4.90;99.90
2647;DHT22;1333;50.958;6.770;2023-04-15T05:17:43;5.00;99.90
2647;DHT22;1333;50.958;6.770;2023-04-15T05:20:09;5.10;99.90
2647;DHT22;1333;50.958;6.770;2023-04-15T05:22:35;5.20;99.90
2647;DHT22;1333;50.958;6.770;2023-04-15T05:25:01;5.30;99.90
2647;DHT22;1333;50.958;6.770;2023-04-15T05:27:26;5.50;99.90
2647;DHT22;1333;50.958;6.770;2023-04-15T05:29:52;5.70;99.90
2647;DHT22;1333;50.958;6.770;2023-04-15T05:32:18;5.90;99.90
2647;DHT22;1333;50.958;6.770;2023-04-15T05:34:43;6.00;99.90
2647;DHT22;1333;50.958;6.770;2023-04-15T05:37:09;6.30;99.90
2647;DHT22;1333;50.958;6.770;2023-04-15T05:39:34;6.60;99.90
2647;DHT22;1333;50.958;6.770;2023-04-15T05:42:00;6.90;99.90
2647;DHT22;1333;50.958;6.770;2023-04-15T05:44:26;7.20;99.90
2647;DHT22;1333;50.958;6.770;2023-04-15T05:46:51;7.70;99.90
2647;DHT22;1333;50.958;6.770;2023-04-15T05:49:17;8.40;99.90
2647;DHT22;1333;50.958;6.770;2023-04-15T05:51:43;9.10;99.90
2647;DHT22;1333;50.958;6.770;2023-04-15T05:54:08;9.90;99.90
2647;DHT22;1333;50.958;6.770;2023-04-15T05:56:34;10.70;99.90
2647;DHT22;1333;50.958;6.770;2023-04-15T05:58:59;11.50;99.90
2647;DHT22;1333;50.958;6.770;2023-04-15T06:01:25;12.30;99.90
2647;DHT22;1333;50.958;6.770;2023-04-15T06:03:50;13.10;99.90
2647;DHT22;1333;50.958;6.770;2023-04-15T06:06:16;13.70;99.90
2647;DHT22;1333;50.958;6.770;2023-04-15T06:08:41;14.20;99.90
2647;DHT22;1333;50.958;6.770;2023-04-15T06:11:07;14.60;99.90
2647;DHT22;1333;50.958;6.770;2023-04-15T06:13:32;14.90;99.90
2647;DHT22;1333;50.958;6.770;2023-04-15T06:15:59;15.00;99.90
2647;DHT22;1333;50.958;6.770;2023-04-15T06:18:24;15.00;99.90
2647;DHT22;1333;50.958;6.770;2023-04-15T06:20:50;14.60;98.10
2647;DHT22;1333;50.958;6.770;2023-04-15T06:23:16;14.30;97.00
2647;DHT22;1333;50.958;6.770;2023-04-15T06:25:41;14.10;98.20
2647;DHT22;1333;50.958;6.770;2023-04-15T06:28:07;14.10;99.20
2647;DHT22;1333;50.958;6.770;2023-04-15T06:30:32;14.00;99.90
2647;DHT22;1333;50.958;6.770;2023-04-15T06:32:58;14.00;99.90
2647;DHT22;1333;50.958;6.770;2023-04-15T06:35:24;14.00;99.90
2647;DHT22;1333;50.958;6.770;2023-04-15T06:37:49;14.10;99.90
2647;DHT22;1333;50.958;6.770;2023-04-15T06:40:15;14.20;99.90
2647;DHT22;1333;50.958;6.770;2023-04-15T06:42:41;14.40;99.90
2647;DHT22;1333;50.958;6.770;2023-04-15T06:45:07;14.50;99.90
2647;DHT22;1333;50.958;6.770;2023-04-15T06:47:33;14.60;99.80
2647;DHT22;1333;50.958;6.770;2023-04-15T06:49:58;14.80;98.70
2647;DHT22;1333;50.958;6.770;2023-04-15T06:52:24;15.00;98.80
2647;DHT22;1333;50.958;6.770;2023-04-15T06:54:49;15.30;99.00
2647;DHT22;1333;50.958;6.770;2023-04-15T06:57:15;15.70;98.80
2647;DHT22;1333;50.958;6.770;2023-04-15T06:59:40;16.10;96.70
2647;DHT22;1333;50.958;6.770;2023-04-15T07:02:08;16.90;96.30
2647;DHT22;1333;50.958;6.770;2023-04-15T07:04:36;17.90;93.50
2647;DHT22;1333;50.958;6.770;2023-04-15T07:07:02;18.80;90.20
2647;DHT22;1333;50.958;6.770;2023-04-15T07:09:27;19.30;80.70
2647;DHT22;1333;50.958;6.770;2023-04-15T07:11:53;19.50;74.00
2647;DHT22;1333;50.958;6.770;2023-04-15T07:14:18;19.40;71.00
2647;DHT22;1333;50.958;6.770;2023-04-15T07:16:44;19.10;68.90
2647;DHT22;1333;50.958;6.770;2023-04-15T07:19:09;19.00;70.40
2647;DHT22;1333;50.958;6.770;2023-04-15T07:21:36;19.10;70.80
2647;DHT22;1333;50.958;6.770;2023-04-15T07:24:01;19.00;68.80
2647;DHT22;1333;50.958;6.770;2023-04-15T07:26:27;18.90;68.70
2647;DHT22;1333;50.958;6.770;2023-04-15T07:28:53;18.80;69.10
2647;DHT22;1333;50.958;6.770;2023-04-15T07:31:18;18.70;69.30
2647;DHT22;1333;50.958;6.770;2023-04-15T07:33:44;18.70;70.40
2647;DHT22;1333;50.958;6.770;2023-04-15T07:36:09;19.00;70.30
2647;DHT22;1333;50.958;6.770;2023-04-15T07:38:35;19.30;69.50
2647;DHT22;1333;50.958;6.770;2023-04-15T07:41:00;19.70;68.60
2647;DHT22;1333;50.958;6.770;2023-04-15T07:43:26;20.00;67.80
2647;DHT22;1333;50.958;6.770;2023-04-15T07:45:52;20.20;65.80
2647;DHT22;1333;50.958;6.770;2023-04-15T07:48:17;20.30;65.70
2647;DHT22;1333;50.958;6.770;2023-04-15T07:50:43;20.30;64.40
2647;DHT22;1333;50.958;6.770;2023-04-15T07:53:08;20.40;64.20
2647;DHT22;1333;50.958;6.770;2023-04-15T07:55:34;20.50;64.90
2647;DHT22;1333;50.958;6.770;2023-04-15T07:57:59;20.60;64.40
2647;DHT22;1333;50.958;6.770;2023-04-15T08:00:25;20.90;64.00
2647;DHT22;1333;50.958;6.770;2023-04-15T08:02:51;21.00;62.50
2647;DHT22;1333;50.958;6.770;2023-04-15T08:05:18;21.10;61.50
2647;DHT22;1333;50.958;6.770;2023-04-15T08:07:44;21.20;61.40
2647;DHT22;1333;50.958;6.770;2023-04-15T08:10:10;21.40;62.50
2647;DHT22;1333;50.958;6.770;2023-04-15T08:12:36;21.80;62.10
2647;DHT22;1333;50.958;6.770;2023-04-15T08:15:02;22.40;61.60
2647;DHT22;1333;50.958;6.770;2023-04-15T08:17:28;23.10;59.60
2647;DHT22;1333;50.958;6.770;2023-04-15T08:19:53;23.60;57.10
2647;DHT22;1333;50.958;6.770;2023-04-15T08:22:19;24.10;56.40
2647;DHT22;1333;50.958;6.770;2023-04-15T08:24:44;24.30;54.40
2647;DHT22;1333;50.958;6.770;2023-04-15T08:27:10;24.40;53.60
2647;DHT22;1333;50.958;6.770;2023-04-15T08:29:35;24.40;53.50
2647;DHT22;1333;50.958;6.770;2023-04-15T08:32:01;24.70;52.80
2647;DHT22;1333;50.958;6.770;2023-04-15T08:34:27;25.00;51.70
2647;DHT22;1333;50.958;6.770;2023-04-15T08:36:53;25.00;50.40
2647;DHT22;1333;50.958;6.770;2023-04-15T08:39:18;24.90;49.40
2647;DHT22;1333;50.958;6.770;2023-04-15T08:41:53;24.10;45.90
2647;DHT22;1333;50.958;6.770;2023-04-15T08:44:23;23.40;45.40
2647;DHT22;1333;50.958;6.770;2023-04-15T08:46:49;23.30;47.10
2647;DHT22;1333;50.958;6.770;2023-04-15T08:49:16;22.90;46.40
2647;DHT22;1333;50.958;6.770;2023-04-15T08:51:43;22.90;47.20
2647;DHT22;1333;50.958;6.770;2023-04-15T08:54:09;23.40;48.90
2647;DHT22;1333;50.958;6.770;2023-04-15T08:56:35;24.00;48.70
2647;DHT22;1333;50.958;6.770;2023-04-15T08:59:01;24.10;46.90
2647;DHT22;1333;50.958;6.770;2023-04-15T09:01:28;24.20;47.10
2647;DHT22;1333;50.958;6.770;2023-04-15T09:03:53;24.80;46.70
2647;DHT22;1333;50.958;6.770;2023-04-15T09:06:21;25.60;44.60
2647;DHT22;1333;50.958;6.770;2023-04-15T09:08:48;26.20;43.80
2647;DHT22;1333;50.958;6.770;2023-04-15T09:11:13;26.60;42.10
2647;DHT22;1333;50.958;6.770;2023-04-15T09:13:39;27.20;40.70
2647;DHT22;1333;50.958;6.770;2023-04-15T09:16:05;27.40;40.00
2647;DHT22;1333;50.958;6.770;2023-04-15T09:18:36;27.90;39.90
2647;DHT22;1333;50.958;6.770;2023-04-15T09:21:09;28.20;38.20
2647;DHT22;1333;50.958;6.770;2023-04-15T09:23:38;28.80;38.80
2647;DHT22;1333;50.958;6.770;2023-04-15T09:26:04;29.20;37.40
2647;DHT22;1333;50.958;6.770;2023-04-15T09:28:30;29.20;36.40
2647;DHT22;1333;50.958;6.770;2023-04-15T09:31:00;29.00;35.70
2647;DHT22;1333;50.958;6.770;2023-04-15T09:33:28;28.60;35.50
2647;DHT22;1333;50.958;6.770;2023-04-15T09:36:02;28.30;36.00
2647;DHT22;1333;50.958;6.770;2023-04-15T09:38:29;28.20;36.80
2647;DHT22;1333;50.958;6.770;2023-04-15T09:40:56;28.40;36.30
2647;DHT22;1333;50.958;6.770;2023-04-15T09:43:21;28.60;35.80
2647;DHT22;1333;50.958;6.770;2023-04-15T09:45:51;29.00;36.20
2647;DHT22;1333;50.958;6.770;2023-04-15T09:48:22;29.70;36.00
2647;DHT22;1333;50.958;6.770;2023-04-15T09:50:49;29.90;34.60
2647;DHT22;1333;50.958;6.770;2023-04-15T09:53:16;29.80;35.00
2647;DHT22;1333;50.958;6.770;2023-04-15T09:55:45;29.30;34.40
2647;DHT22;1333;50.958;6.770;2023-04-15T09:58:21;28.70;35.00
2647;DHT22;1333;50.958;6.770;2023-04-15T10:00:49;28.00;35.60
2647;DHT22;1333;50.958;6.770;2023-04-15T10:03:19;27.60;36.20
2647;DHT22;1333;50.958;6.770;2023-04-15T10:05:47;27.60;37.00
2647;DHT22;1333;50.958;6.770;2023-04-15T10:08:15;27.90;37.30
2647;DHT22;1333;50.958;6.770;2023-04-15T10:10:40;28.90;37.50
2647;DHT22;1333;50.958;6.770;2023-04-15T10:13:06;29.90;36.40
2647;DHT22;1333;50.958;6.770;2023-04-15T10:15:33;30.70;34.50
2647;DHT22;1333;50.958;6.770;2023-04-15T10:17:59;31.90;34.00
2647;DHT22;1333;50.958;6.770;2023-04-15T10:20:25;33.30;33.30
2647;DHT22;1333;50.958;6.770;2023-04-15T10:22:53;34.70;32.00
2647;DHT22;1333;50.958;6.770;2023-04-15T10:25:19;35.80;30.40
2647;DHT22;1333;50.958;6.770;2023-04-15T10:27:45;36.80;30.10
2647;DHT22;1333;50.958;6.770;2023-04-15T10:30:13;37.00;28.70
2647;DHT22;1333;50.958;6.770;2023-04-15T10:32:39;36.80;28.60
2647;DHT22;1333;50.958;6.770;2023-04-15T10:35:06;37.00;28.50
2647;DHT22;1333;50.958;6.770;2023-04-15T10:37:37;35.90;27.70
2647;DHT22;1333;50.958;6.770;2023-04-15T10:40:32;34.80;28.50
2647;DHT22;1333;50.958;6.770;2023-04-15T10:43:00;33.20;28.70
2647;DHT22;1333;50.958;6.770;2023-04-15T10:45:33;33.00;29.30
2647;DHT22;1333;50.958;6.770;2023-04-15T10:48:01;32.90;29.20
2647;DHT22;1333;50.958;6.770;2023-04-15T10:50:27;32.00;29.10
2647;DHT22;1333;50.958;6.770;2023-04-15T10:52:56;31.00;29.80
2647;DHT22;1333;50.958;6.770;2023-04-15T10:55:23;30.20;30.20
2647;DHT22;1333;50.958;6.770;2023-04-15T10:57:53;30.10;31.90
2647;DHT22;1333;50.958;6.770;2023-04-15T11:00:24;30.30;31.40
2647;DHT22;1333;50.958;6.770;2023-04-15T11:05:19;30.30;31.40
2647;DHT22;1333;50.958;6.770;2023-04-15T11:07:46;30.60;31.90
2647;DHT22;1333;50.958;6.770;2023-04-15T11:12:39;31.30;31.40
2647;DHT22;1333;50.958;6.770;2023-04-15T11:15:24;30.60;31.70
2647;DHT22;1333;50.958;6.770;2023-04-15T11:17:51;31.20;32.30
2647;DHT22;1333;50.958;6.770;2023-04-15T11:20:17;31.90;31.50
2647;DHT22;1333;50.958;6.770;2023-04-15T11:22:47;31.70;30.50
2647;DHT22;1333;50.958;6.770;2023-04-15T11:27:49;31.20;31.70
2647;DHT22;1333;50.958;6.770;2023-04-15T11:30:22;30.80;31.20
2647;DHT22;1333;50.958;6.770;2023-04-15T11:32:49;30.00;31.60
2647;DHT22;1333;50.958;6.770;2023-04-15T11:35:16;29.10;32.50
2647;DHT22;1333;50.958;6.770;2023-04-15T11:37:42;28.60;33.20
2647;DHT22;1333;50.958;6.770;2023-04-15T11:40:08;28.80;34.30
2647;DHT22;1333;50.958;6.770;2023-04-15T11:42:33;29.80;34.40
2647;DHT22;1333;50.958;6.770;2023-04-15T11:45:13;30.40;33.30
2647;DHT22;1333;50.958;6.770;2023-04-15T11:47:40;29.80;32.60
2647;DHT22;1333;50.958;6.770;2023-04-15T11:52:38;28.00;33.60
2647;DHT22;1333;50.958;6.770;2023-04-15T11:55:06;27.10;34.60
2647;DHT22;1333;50.958;6.770;2023-04-15T11:57:34;26.30;35.60
2647;DHT22;1333;50.958;6.770;2023-04-15T11:59:59;25.60;36.40
2647;DHT22;1333;50.958;6.770;2023-04-15T12:02:30;24.80;37.40
2647;DHT22;1333;50.958;6.770;2023-04-15T12:05:05;24.00;38.10
2647;DHT22;1333;50.958;6.770;2023-04-15T12:07:31;23.20;38.60
2647;DHT22;1333;50.958;6.770;2023-04-15T12:09:57;22.40;39.60
2647;DHT22;1333;50.958;6.770;2023-04-15T12:12:28;21.80;40.60
2647;DHT22;1333;50.958;6.770;2023-04-15T12:14:55;21.30;41.70
2647;DHT22;1333;50.958;6.770;2023-04-15T12:17:22;20.80;42.90
2647;DHT22;1333;50.958;6.770;2023-04-15T12:19:47;20.40;43.80
2647;DHT22;1333;50.958;6.770;2023-04-15T12:22:16;20.10;44.70
2647;DHT22;1333;50.958;6.770;2023-04-15T12:24:43;19.90;45.80
2647;DHT22;1333;50.958;6.770;2023-04-15T12:27:11;19.60;46.20
2647;DHT22;1333;50.958;6.770;2023-04-15T12:29:39;19.20;47.30
2647;DHT22;1333;50.958;6.770;2023-04-15T12:32:09;19.00;48.10
2647;DHT22;1333;50.958;6.770;2023-04-15T12:34:40;18.90;48.40
2647;DHT22;1333;50.958;6.770;2023-04-15T12:37:08;18.90;48.60
2647;DHT22;1333;50.958;6.770;2023-04-15T12:39:39;18.90;49.10
2647;DHT22;1333;50.958;6.770;2023-04-15T12:42:06;18.80;49.30
2647;DHT22;1333;50.958;6.770;2023-04-15T12:44:32;18.50;49.60
2647;DHT22;1333;50.958;6.770;2023-04-15T12:46:58;18.40;50.70
2647;DHT22;1333;50.958;6.770;2023-04-15T12:49:25;18.40;50.80
2647;DHT22;1333;50.958;6.770;2023-04-15T12:51:53;18.30;50.90
2647;DHT22;1333;50.958;6.770;2023-04-15T12:54:19;18.10;51.20
2647;DHT22;1333;50.958;6.770;2023-04-15T12:56:46;17.90;52.00
2647;DHT22;1333;50.958;6.770;2023-04-15T12:59:12;17.60;52.70
2647;DHT22;1333;50.958;6.770;2023-04-15T13:01:39;17.20;53.30
2647;DHT22;1333;50.958;6.770;2023-04-15T13:04:04;17.00;54.30
2647;DHT22;1333;50.958;6.770;2023-04-15T13:06:30;16.70;55.60
2647;DHT22;1333;50.958;6.770;2023-04-15T13:08:58;16.60;57.10
2647;DHT22;1333;50.958;6.770;2023-04-15T13:11:24;16.40;58.10
2647;DHT22;1333;50.958;6.770;2023-04-15T13:13:50;16.30;59.60
2647;DHT22;1333;50.958;6.770;2023-04-15T13:16:17;16.30;60.60
2647;DHT22;1333;50.958;6.770;2023-04-15T13:18:43;16.20;61.10
2647;DHT22;1333;50.958;6.770;2023-04-15T13:21:11;16.20;62.40
2647;DHT22;1333;50.958;6.770;2023-04-15T13:23:36;16.20;63.20
2647;DHT22;1333;50.958;6.770;2023-04-15T13:26:02;16.30;64.60
2647;DHT22;1333;50.958;6.770;2023-04-15T13:28:28;16.30;66.10
2647;DHT22;1333;50.958;6.770;2023-04-15T13:30:53;16.30;68.00
2647;DHT22;1333;50.958;6.770;2023-04-15T13:33:19;16.30;68.80
2647;DHT22;1333;50.958;6.770;2023-04-15T13:35:45;16.30;70.00
2647;DHT22;1333;50.958;6.770;2023-04-15T13:38:10;16.10;71.50
2647;DHT22;1333;50.958;6.770;2023-04-15T13:40:36;16.10;73.70
2647;DHT22;1333;50.958;6.770;2023-04-15T13:43:01;16.00;76.10
2647;DHT22;1333;50.958;6.770;2023-04-15T13:45:28;16.00;77.40
2647;DHT22;1333;50.958;6.770;2023-04-15T13:47:55;16.00;79.80
2647;DHT22;1333;50.958;6.770;2023-04-15T13:50:21;16.10;80.80
2647;DHT22;1333;50.958;6.770;2023-04-15T13:52:47;16.00;80.60
2647;DHT22;1333;50.958;6.770;2023-04-15T13:55:12;16.00;82.30
2647;DHT22;1333;50.958;6.770;2023-04-15T13:57:38;15.90;83.00
2647;DHT22;1333;50.958;6.770;2023-04-15T14:00:04;15.70;82.20
2647;DHT22;1333;50.958;6.770;2023-04-15T14:02:30;15.60;83.80
2647;DHT22;1333;50.958;6.770;2023-04-15T14:04:56;15.50;84.90
2647;DHT22;1333;50.958;6.770;2023-04-15T14:07:21;15.40;88.40
2647;DHT22;1333;50.958;6.770;2023-04-15T14:09:47;15.30;90.90
2647;DHT22;1333;50.958;6.770;2023-04-15T14:12:12;15.30;91.80
2647;DHT22;1333;50.958;6.770;2023-04-15T14:14:39;15.20;92.70
2647;DHT22;1333;50.958;6.770;2023-04-15T14:17:05;15.10;93.70
2647;DHT22;1333;50.958;6.770;2023-04-15T14:19:31;15.00;94.30
2647;DHT22;1333;50.958;6.770;2023-04-15T14:21:56;15.00;96.20
2647;DHT22;1333;50.958;6.770;2023-04-15T14:24:22;15.00;97.90
2647;DHT22;1333;50.958;6.770;2023-04-15T14:26:48;15.00;98.70
2647;DHT22;1333;50.958;6.770;2023-04-15T14:29:13;14.90;99.90
2647;DHT22;1333;50.958;6.770;2023-04-15T14:31:39;14.80;99.90
2647;DHT22;1333;50.958;6.770;2023-04-15T14:34:04;14.80;99.90
2647;DHT22;1333;50.958;6.770;2023-04-15T14:36:30;14.70;99.90
2647;DHT22;1333;50.958;6.770;2023-04-15T14:38:56;14.70;99.90
2647;DHT22;1333;50.958;6.770;2023-04-15T14:41:22;14.70;99.90
2647;DHT22;1333;50.958;6.770;2023-04-15T14:43:48;14.80;99.90
2647;DHT22;1333;50.958;6.770;2023-04-15T14:46:13;14.90;99.90
2647;DHT22;1333;50.958;6.770;2023-04-15T14:48:39;15.00;99.90
2647;DHT22;1333;50.958;6.770;2023-04-15T14:51:05;15.20;99.90
2647;DHT22;1333;50.958;6.770;2023-04-15T14:53:31;15.20;99.90
2647;DHT22;1333;50.958;6.770;2023-04-15T14:55:56;15.40;99.90
2647;DHT22;1333;50.958;6.770;2023-04-15T14:58:22;15.50;99.90
2647;DHT22;1333;50.958;6.770;2023-04-15T15:00:47;15.70;99.90
2647;DHT22;1333;50.958;6.770;2023-04-15T15:03:13;15.80;99.90
2647;DHT22;1333;50.958;6.770;2023-04-15T15:05:43;15.90;99.90
2647;DHT22;1333;50.958;6.770;2023-04-15T15:08:09;15.90;99.90
2647;DHT22;1333;50.958;6.770;2023-04-15T15:10:35;15.90;99.90
2647;DHT22;1333;50.958;6.770;2023-04-15T15:13:08;15.80;99.90
2647;DHT22;1333;50.958;6.770;2023-04-15T15:15:34;15.70;99.90
2647;DHT22;1333;50.958;6.770;2023-04-15T15:18:01;15.50;99.90
2647;DHT22;1333;50.958;6.770;2023-04-15T15:20:27;15.30;99.90
2647;DHT22;1333;50.958;6.770;2023-04-15T15:22:52;15.20;99.90
2647;DHT22;1333;50.958;6.770;2023-04-15T15:25:18;15.00;99.90
2647;DHT22;1333;50.958;6.770;2023-04-15T15:27:44;14.80;99.90
2647;DHT22;1333;50.958;6.770;2023-04-15T15:30:10;14.60;99.90
2647;DHT22;1333;50.958;6.770;2023-04-15T15:32:40;14.50;99.90
2647;DHT22;1333;50.958;6.770;2023-04-15T15:35:06;14.40;99.90
2647;DHT22;1333;50.958;6.770;2023-04-15T15:37:32;14.40;99.90
2647;DHT22;1333;50.958;6.770;2023-04-15T15:39:58;14.50;99.90
2647;DHT22;1333;50.958;6.770;2023-04-15T15:42:23;14.60;99.90
2647;DHT22;1333;50.958;6.770;2023-04-15T15:44:49;14.60;99.90
2647;DHT22;1333;50.958;6.770;2023-04-15T15:47:20;14.60;99.90
2647;DHT22;1333;50.958;6.770;2023-04-15T15:49:46;14.50;99.90
2647;DHT22;1333;50.958;6.770;2023-04-15T15:52:11;14.50;99.90
2647;DHT22;1333;50.958;6.770;2023-04-15T15:54:38;14.40;99.90
2647;DHT22;1333;50.958;6.770;2023-04-15T15:57:04;14.40;99.90
2647;DHT22;1333;50.958;6.770;2023-04-15T15:59:29;14.40;99.90
2647;DHT22;1333;50.958;6.770;2023-04-15T16:01:55;14.20;99.90
2647;DHT22;1333;50.958;6.770;2023-04-15T16:04:20;14.20;99.90
2647;DHT22;1333;50.958;6.770;2023-04-15T16:06:46;14.10;99.90
2647;DHT22;1333;50.958;6.770;2023-04-15T16:09:12;14.00;99.90
2647;DHT22;1333;50.958;6.770;2023-04-15T16:11:38;13.90;99.90